Terminal Aerodrome Forecast
Issued by NWS Mt. Holly, NJ

Home | Current Version | Previous Version | Text Only | Print | Product List | Glossary On
Versions: 1 2 3 4 5 6 7 8 9 10 11 12 13 14 15 16 17 18 19 20 21 22 23 24
360
FTUS41 KPHI 071826 AAA
TAFTTN
TAF AMD
KTTN 071826Z 0718/0818 32008KT P6SM OVC013
     FM071930 33006KT P6SM OVC020
     FM072300 31004KT P6SM SCT025
     FM081200 29004KT P6SM BKN120
     FM081700 29009KT P6SM BKN070=

USA.gov is the U.S. government's official web portal to all federal, state and local government web resources and services.